Madrid, IA (50156)

11:15 AM CDT on April 25, 2015 (GMT -0500)
KIAMADRI2 | | Change Station
CLOSE
Current Station
Personal Weather Station
Location: Madrid, IA
Elevation: 1020 ft
Nearby Weather Stations

Elev 1020 ft 41.88 °N, 93.82 °W | Updated 8 seconds ago

Overcast
Overcast
47.1 °F
Feels Like 44 °F
N
6.0
Wind Variable Wind from NE
Gusts 11.4 mph

Today
High -- | Low -- °F
--% Chance of Precip.
Yesterday
High -- | Low -- °F
Precip. -- in
6:20 AM 8:07 PM
Waxing Crescent, 47% visible
Pressure 29.64 in
Visibility 9.0 miles
Clouds Overcast 1000 ft
Windchill 44 °F
Dew Point 45 °F
Humidity 91%
Rainfall 0.56 in
Snow Depth Not available.
UV 2 out of 12
Pollen 10.30 out of 12
Air Quality Not available.
Flu Activity Local Activity
METAR KBNW 251555Z AUTO 06021G26KT 9SM OVC010 08/07 A2964 RMK AO2

More Conditions Fewer Conditions

Pressure 29.64 in
Visibility 9.0 miles
Clouds Overcast 1000 ft
Windchill 44 °F
Dew Point 45 °F
Humidity 91%
Rainfall 0.56 in
Snow Depth Not available.
UV 2 out of 12
Pollen 10.30 out of 12
Air Quality Not available.
Flu Activity Local Activity
METAR KBNW 251555Z AUTO 06021G26KT 9SM OVC010 08/07 A2964 RMK AO2

More Conditions Fewer Conditions

10-Day Weather Forecast

Almanac

Astronomy

Apr. 25, 2015 Rise Set
Actual Time
Civil Twilight
Nautical Twilight
Astronomical Twilight
Moon
Length of Visible Light
Length of Day
Tomorrow will be .
, % of the Moon is Illuminated

Today's Extremes

State Highs State Lows

Community

WunderPhotos

Upload Photos

1,816,731 photos uploaded!

WunderBlogs® & News

Nearby

Air Quality

  Air Quality AQ Index Pollutant
Not available.

Snow Depth

Station Depth Elevation

Earthquake Activity

City Distance Mag. Time & Date
Minimum magnitude displayed is 2.5.

Coastal Water Temperatures

Place Temperature

Stations

Nearby Weather Stations

Station Location Temp. Windchill Dew Point Humidity Wind Precip. Elev Updated Type